Погода Заберезцына неделю

Минская область, Белоруссия

24 - 30 мая
  • 24мая
    Сегодня
    +12°
    +25°
    Облачно с прояснениями
    ВремяПогодаТемператураВлажностьДавлениеВетер, м/сВероятность осадков
    00:00Ясно и безоблачно+17°C68 %754 мм1.9 м/с2 %
    03:00Облачно с прояснениями+15°C62 %755 мм1.8 м/с2 %
    06:00Ясно и безоблачно+13°C63 %756 мм1.8 м/с2 %
    09:00Практически безоблачно+17°C57 %756 мм2.5 м/с2 %
    12:00Небольшая облачность+21°C51 %757 мм2.8 м/с2 %
    15:00Облачно с прояснениями+24°C48 %756 мм3.1 м/с2 %
    18:00Облачно с прояснениями+24°C48 %756 мм3.2 м/с1 %
    21:00Небольшая облачность+20°C58 %756 мм2.0 м/с2 %
  • 25мая
    Суббота
    +10°
    +25°
    Небольшая облачность
    ВремяПогодаТемператураВлажностьДавлениеВетер, м/сВероятность осадков
    00:00Облачно с прояснениями+15°C61 %756 мм1.8 м/с2 %
    03:00Небольшая облачность+13°C65 %756 мм1.3 м/с2 %
    06:00Облачно с прояснениями+13°C68 %756 мм1.4 м/с1 %
    09:00Практически безоблачно+17°C62 %756 мм2.2 м/с2 %
    12:00Облачно с прояснениями+22°C52 %756 мм2.5 м/с1 %
    15:00Небольшая облачность+25°C41 %755 мм2.8 м/с6 %
    18:00Практически безоблачно+25°C42 %755 мм2.8 м/с8 %
    21:00Облачно с прояснениями+20°C57 %754 мм1.5 м/с2 %
  • 26мая
    Воскресенье
    +12°
    +25°
    Практически безоблачно
    ВремяПогодаТемператураВлажностьДавлениеВетер, м/сВероятность осадков
    00:00Ясно и безоблачно+15°C59 %755 мм1.4 м/с2 %
    03:00Ясно и безоблачно+12°C68 %755 мм0.7 м/с1 %
    06:00Ясно и безоблачно+11°C75 %755 мм0.6 м/с2 %
    09:00Практически безоблачно+18°C61 %755 мм0.9 м/с2 %
    12:00Облачно с прояснениями+23°C35 %756 мм2.0 м/с2 %
    15:00Практически безоблачно+24°C36 %755 мм2.0 м/с2 %
    18:00Ясно и безоблачно+24°C38 %755 мм2.5 м/с2 %
    21:00Ясно и безоблачно+20°C59 %754 мм0.6 м/с2 %
  • 27мая
    Понедельник
    +14°
    +27°
    Ясно и безоблачно
    ВремяПогодаТемператураВлажностьДавлениеВетер, м/сВероятность осадков
    00:00Ясно и безоблачно+16°C78 %754 мм0.8 м/с2 %
    03:00Ясно и безоблачно+13°C84 %755 мм0.3 м/с2 %
    06:00Ясно и безоблачно+13°C82 %755 мм0.7 м/с2 %
    09:00Ясно и безоблачно+19°C65 %755 мм0.8 м/с2 %
    12:00Практически безоблачно+25°C41 %756 мм2.1 м/с5 %
    15:00Ясно и безоблачно+26°C39 %755 мм2.3 м/с15 %
    18:00Практически безоблачно+26°C41 %754 мм2.4 м/с40 %
    21:00Ясно и безоблачно+21°C63 %754 мм0.9 м/с9 %
  • 28мая
    Вторник
    +14°
    +26°
    Практически безоблачно
    ВремяПогодаТемператураВлажностьДавлениеВетер, м/сВероятность осадков
    00:00Ясно и безоблачно+18°C75 %754 мм1.2 м/с2 %
    03:00Ясно и безоблачно+15°C85 %754 мм0.7 м/с2 %
    06:00Ясно и безоблачно+15°C85 %754 мм0.9 м/с2 %
    09:00Ясно и безоблачно+20°C72 %755 мм1.5 м/с3 %
    12:00Ясно и безоблачно+25°C54 %755 мм2.1 м/с2 %
    15:00Практически безоблачно+25°C50 %754 мм1.9 м/с4 %
    18:00Ясно и безоблачно+25°C45 %753 мм2.2 м/с4 %
    21:00Ясно и безоблачно+21°C67 %753 мм1.0 м/с7 %
Мы используем cookies
Соглашаюсь